createdAt,value
2023-04-15T00:01:12.330Z,6.9
2023-04-15T00:02:28.595Z,6.9
2023-04-15T00:03:44.912Z,7
2023-04-15T00:05:01.184Z,6.9
2023-04-15T00:06:16.494Z,7
2023-04-15T00:07:32.786Z,6.9
2023-04-15T00:08:49.081Z,6.9
2023-04-15T00:10:05.384Z,6.9
2023-04-15T00:11:21.663Z,6.9
2023-04-15T00:12:37.969Z,6.9
2023-04-15T00:13:54.278Z,6.9
2023-04-15T00:15:10.544Z,6.9
2023-04-15T00:16:26.841Z,6.9
2023-04-15T00:17:43.139Z,6.9
2023-04-15T00:18:59.435Z,6.9
2023-04-15T00:20:15.719Z,6.9
2023-04-15T00:21:32.036Z,6.9
2023-04-15T00:22:47.332Z,6.9
2023-04-15T00:24:03.619Z,6.9
2023-04-15T00:25:19.911Z,6.9
2023-04-15T00:26:36.206Z,6.9
2023-04-15T00:27:52.522Z,6.9
2023-04-15T00:29:08.797Z,6.9
2023-04-15T00:30:25.092Z,6.9
2023-04-15T00:31:41.402Z,6.9
2023-04-15T00:32:57.677Z,6.9
2023-04-15T00:34:13.969Z,6.9
2023-04-15T00:35:30.267Z,6.9
2023-04-15T00:36:46.569Z,6.9
2023-04-15T00:38:02.859Z,7
2023-04-15T00:39:18.156Z,6.9
2023-04-15T00:40:34.451Z,6.9
2023-04-15T00:41:50.775Z,6.9
2023-04-15T00:43:07.057Z,6.9
2023-04-15T00:44:23.000Z,6.9
2023-04-15T00:45:39.632Z,6.9
2023-04-15T00:46:55.921Z,6.9
2023-04-15T00:48:12.222Z,6.9
2023-04-15T00:49:28.510Z,6.9
2023-04-15T00:50:44.819Z,6.9
2023-04-15T00:52:01.112Z,6.9
2023-04-15T00:53:17.390Z,6.9
2023-04-15T00:54:33.702Z,6.8
2023-04-15T00:55:49.017Z,6.9
2023-04-15T00:57:05.286Z,6.9
2023-04-15T00:58:21.590Z,6.9
2023-04-15T00:59:37.903Z,6.9
2023-04-15T01:00:54.177Z,6.9
2023-04-15T01:02:10.462Z,6.8
2023-04-15T01:03:25.777Z,6.9
2023-04-15T01:04:42.078Z,6.9
2023-04-15T01:05:58.364Z,6.9
2023-04-15T01:07:14.654Z,6.9
2023-04-15T01:08:30.969Z,6.9
2023-04-15T01:09:47.242Z,6.8
2023-04-15T01:11:03.534Z,6.8
2023-04-15T01:12:19.834Z,6.8
2023-04-15T01:13:36.125Z,6.8
2023-04-15T01:14:52.449Z,6.8
2023-04-15T01:16:08.712Z,6.8
2023-04-15T01:17:25.012Z,6.8
2023-04-15T01:18:41.303Z,6.8
2023-04-15T01:19:56.630Z,6.8
2023-04-15T01:21:12.000Z,6.8
2023-04-15T01:22:29.225Z,6.8
2023-04-15T01:23:45.498Z,6.8
2023-04-15T01:25:01.790Z,6.8
2023-04-15T01:26:18.085Z,6.8
2023-04-15T01:27:34.370Z,6.8
2023-04-15T01:28:50.681Z,6.8
2023-04-15T01:30:06.966Z,6.8
2023-04-15T01:31:23.261Z,6.8
2023-04-15T01:32:39.547Z,6.8
2023-04-15T01:33:55.855Z,6.8
2023-04-15T01:35:12.165Z,6.8
2023-04-15T01:36:27.443Z,6.8
2023-04-15T01:37:43.762Z,6.8
2023-04-15T01:39:00.040Z,6.8
2023-04-15T01:40:16.352Z,6.8
2023-04-15T01:41:32.622Z,6.8
2023-04-15T01:42:48.914Z,6.8
2023-04-15T01:44:05.204Z,6.8
2023-04-15T01:45:21.534Z,6.8
2023-04-15T01:46:37.795Z,6.8
2023-04-15T01:47:54.086Z,6.8
2023-04-15T01:49:10.422Z,6.8
2023-04-15T01:50:26.691Z,6.8
2023-04-15T01:51:42.973Z,6.8
2023-04-15T01:52:58.275Z,6.7
2023-04-15T01:54:14.577Z,6.8
2023-04-15T01:55:30.886Z,6.8
2023-04-15T01:56:47.187Z,6.7
2023-04-15T01:58:03.000Z,6.7
2023-04-15T01:59:19.000Z,6.8
2023-04-15T02:00:36.000Z,6.8
2023-04-15T02:01:52.356Z,6.8
2023-04-15T02:03:08.651Z,6.8
2023-04-15T02:04:24.918Z,6.8
2023-04-15T02:05:41.243Z,6.8
2023-04-15T02:06:57.522Z,6.8
2023-04-15T02:08:13.813Z,6.8
2023-04-15T02:09:29.114Z,6.9
2023-04-15T02:10:45.406Z,6.8
2023-04-15T02:12:01.699Z,6.8
2023-04-15T02:13:17.998Z,6.8
2023-04-15T02:14:34.000Z,6.8
2023-04-15T02:15:50.592Z,6.8
2023-04-15T02:17:06.873Z,6.8
2023-04-15T02:18:23.185Z,6.7
2023-04-15T02:19:39.475Z,6.7
2023-04-15T02:20:55.757Z,6.7
2023-04-15T02:22:12.060Z,6.7
2023-04-15T02:23:28.353Z,6.7
2023-04-15T02:24:44.648Z,6.7
2023-04-15T02:25:59.949Z,6.7
2023-04-15T02:27:16.235Z,6.7
2023-04-15T02:28:32.000Z,6.7
2023-04-15T02:29:48.828Z,6.7
2023-04-15T02:31:05.128Z,6.7
2023-04-15T02:32:21.421Z,6.7
2023-04-15T02:33:37.719Z,6.7
2023-04-15T02:34:54.000Z,6.7
2023-04-15T02:36:10.300Z,6.7
2023-04-15T02:37:26.597Z,6.7
2023-04-15T02:38:42.892Z,6.7
2023-04-15T02:39:59.186Z,6.7
2023-04-15T02:41:15.471Z,6.7
2023-04-15T02:42:30.791Z,6.7
2023-04-15T02:43:47.086Z,6.7
2023-04-15T02:45:03.367Z,6.7
2023-04-15T02:46:19.000Z,6.7
2023-04-15T02:47:35.950Z,6.7
2023-04-15T02:48:52.246Z,6.7
2023-04-15T02:50:08.549Z,6.7
2023-04-15T02:51:24.839Z,6.7
2023-04-15T02:52:41.126Z,6.7
2023-04-15T02:53:57.428Z,6.7
2023-04-15T02:55:13.724Z,6.7
2023-04-15T02:56:30.014Z,6.7
2023-04-15T02:57:46.309Z,6.7
2023-04-15T02:59:01.623Z,6.7
2023-04-15T03:00:17.906Z,6.7
2023-04-15T03:01:34.208Z,6.7
2023-04-15T03:02:50.490Z,6.7
2023-04-15T03:04:06.801Z,6.7
2023-04-15T03:05:23.078Z,6.8
2023-04-15T03:06:39.388Z,6.8
2023-04-15T03:07:55.674Z,6.7
2023-04-15T03:09:11.982Z,6.7
2023-04-15T03:10:28.275Z,6.8
2023-04-15T03:11:44.547Z,6.7
2023-04-15T03:13:00.851Z,6.8
2023-04-15T03:14:17.154Z,6.7
2023-04-15T03:15:32.457Z,6.7
2023-04-15T03:16:48.754Z,6.8
2023-04-15T03:18:05.037Z,6.8
2023-04-15T03:19:21.000Z,6.8
2023-04-15T03:20:37.635Z,6.8
2023-04-15T03:21:53.000Z,6.8
2023-04-15T03:23:10.219Z,6.8
2023-04-15T03:24:26.517Z,6.8
2023-04-15T03:25:42.806Z,6.8
2023-04-15T03:26:59.094Z,6.7
2023-04-15T03:28:15.393Z,6.7
2023-04-15T03:29:31.676Z,6.7
2023-04-15T03:30:47.970Z,6.7
2023-04-15T03:32:03.292Z,6.7
2023-04-15T03:33:19.586Z,6.7
2023-04-15T03:34:35.878Z,6.7
2023-04-15T03:35:52.184Z,6.7
2023-04-15T03:37:08.460Z,6.7
2023-04-15T03:38:24.755Z,6.7
2023-04-15T03:39:41.048Z,6.7
2023-04-15T03:40:57.346Z,6.7
2023-04-15T03:42:13.637Z,6.7
2023-04-15T03:43:29.921Z,6.7
2023-04-15T03:44:46.218Z,6.7
2023-04-15T03:46:02.516Z,6.7
2023-04-15T03:47:18.810Z,6.8
2023-04-15T03:48:34.130Z,6.8
2023-04-15T03:49:50.414Z,6.8
2023-04-15T03:51:06.712Z,6.8
2023-04-15T03:52:23.009Z,6.8
2023-04-15T03:53:39.291Z,6.8
2023-04-15T03:54:55.582Z,6.8
2023-04-15T03:56:11.888Z,6.8
2023-04-15T03:57:28.172Z,6.7
2023-04-15T03:58:44.479Z,6.8
2023-04-15T04:00:00.763Z,6.8
2023-04-15T04:01:16.996Z,6.7
2023-04-15T04:02:33.305Z,6.8
2023-04-15T04:03:49.551Z,6.7
2023-04-15T04:05:04.812Z,6.7
2023-04-15T04:06:21.048Z,6.7
2023-04-15T04:07:37.282Z,6.7
2023-04-15T04:08:53.587Z,6.8
2023-04-15T04:10:09.871Z,6.7
2023-04-15T04:11:26.163Z,6.7
2023-04-15T04:12:42.423Z,6.8
2023-04-15T04:13:58.668Z,6.8
2023-04-15T04:15:14.942Z,6.8
2023-04-15T04:16:31.197Z,6.7
2023-04-15T04:17:47.441Z,6.7
2023-04-15T04:19:03.674Z,6.8
2023-04-15T04:20:19.920Z,6.8
2023-04-15T04:21:35.176Z,6.8
2023-04-15T04:22:51.412Z,6.8
2023-04-15T04:24:07.000Z,6.8
2023-04-15T04:25:23.903Z,6.7
2023-04-15T04:26:40.143Z,6.8
2023-04-15T04:27:56.377Z,6.8
2023-04-15T04:29:12.612Z,6.8
2023-04-15T04:30:28.850Z,6.8
2023-04-15T04:31:45.089Z,6.8
2023-04-15T04:33:01.336Z,6.8
2023-04-15T04:34:17.574Z,6.8
2023-04-15T04:35:33.829Z,6.8
2023-04-15T04:36:50.045Z,6.8
2023-04-15T04:38:05.307Z,6.8
2023-04-15T04:39:21.550Z,6.8
2023-04-15T04:40:37.786Z,6.8
2023-04-15T04:41:54.036Z,6.7
2023-04-15T04:43:10.274Z,6.8
2023-04-15T04:44:26.514Z,6.8
2023-04-15T04:45:42.743Z,6.8
2023-04-15T04:46:58.986Z,6.8
2023-04-15T04:48:15.229Z,6.8
2023-04-15T04:49:31.468Z,6.8
2023-04-15T04:50:47.696Z,6.8
2023-04-15T04:52:03.000Z,6.8
2023-04-15T04:53:20.187Z,6.8
2023-04-15T04:54:35.000Z,6.8
2023-04-15T04:55:51.000Z,6.8
2023-04-15T04:57:07.929Z,6.8
2023-04-15T04:58:24.151Z,6.8
2023-04-15T04:59:40.391Z,6.8
2023-04-15T05:00:56.649Z,6.8
2023-04-15T05:02:12.879Z,6.8
2023-04-15T05:03:29.120Z,6.9
2023-04-15T05:04:45.355Z,6.8
2023-04-15T05:06:01.608Z,6.9
2023-04-15T05:07:17.837Z,6.9
2023-04-15T05:08:34.083Z,6.9
2023-04-15T05:09:50.324Z,6.9
2023-04-15T05:11:05.570Z,6.9
2023-04-15T05:12:21.806Z,6.9
2023-04-15T05:13:38.064Z,6.9
2023-04-15T05:14:54.286Z,6.9
2023-04-15T05:16:10.521Z,6.9
2023-04-15T05:17:26.772Z,6.9
2023-04-15T05:18:42.034Z,6.9
2023-04-15T05:19:58.266Z,6.9
2023-04-15T05:21:14.518Z,6.9
2023-04-15T05:22:30.760Z,6.9
2023-04-15T05:23:46.990Z,6.9
2023-04-15T05:25:03.223Z,6.9
2023-04-15T05:26:19.464Z,6.9
2023-04-15T05:27:35.703Z,6.9
2023-04-15T05:28:51.949Z,6.9
2023-04-15T05:30:08.180Z,6.9
2023-04-15T05:31:24.435Z,6.9
2023-04-15T05:32:40.665Z,6.9
2023-04-15T05:33:56.910Z,6.9
2023-04-15T05:35:12.157Z,6.9
2023-04-15T05:36:28.421Z,6.9
2023-04-15T05:37:44.651Z,6.9
2023-04-15T05:39:00.880Z,6.9
2023-04-15T05:40:17.134Z,6.9
2023-04-15T05:41:33.374Z,6.9
2023-04-15T05:42:49.599Z,7
2023-04-15T05:44:05.845Z,6.9
2023-04-15T05:45:22.092Z,6.9
2023-04-15T05:46:38.329Z,7
2023-04-15T05:47:54.568Z,7
2023-04-15T05:49:10.812Z,7
2023-04-15T05:50:27.035Z,6.9
2023-04-15T05:51:42.309Z,6.9
2023-04-15T05:52:58.542Z,6.9
2023-04-15T05:54:14.771Z,6.9
2023-04-15T05:55:31.029Z,6.9
2023-04-15T05:56:47.263Z,7
2023-04-15T05:58:03.496Z,7
2023-04-15T05:59:19.743Z,6.9
2023-04-15T06:00:35.976Z,7
2023-04-15T06:01:52.226Z,7
2023-04-15T06:03:08.462Z,7
2023-04-15T06:04:24.704Z,7
2023-04-15T06:05:40.947Z,7
2023-04-15T06:06:57.193Z,7
2023-04-15T06:08:12.437Z,7.1
2023-04-15T06:09:28.663Z,7
2023-04-15T06:10:44.911Z,7
2023-04-15T06:12:01.158Z,7
2023-04-15T06:13:17.397Z,7
2023-04-15T06:14:33.643Z,7.1
2023-04-15T06:15:49.000Z,7
2023-04-15T06:17:06.122Z,7.1
2023-04-15T06:18:22.358Z,7.1
2023-04-15T06:19:38.590Z,7.1
2023-04-15T06:20:54.829Z,7.1
2023-04-15T06:22:11.069Z,7.1
2023-04-15T06:23:27.311Z,7.1
2023-04-15T06:24:42.560Z,7.1
2023-04-15T06:25:58.809Z,7.1
2023-04-15T06:27:15.043Z,7.1
2023-04-15T06:28:31.294Z,7.2
2023-04-15T06:29:47.518Z,7.2
2023-04-15T06:31:03.762Z,7.2
2023-04-15T06:32:20.023Z,7.2
2023-04-15T06:33:36.254Z,7.2
2023-04-15T06:34:52.480Z,7.2
2023-04-15T06:36:08.738Z,7.2
2023-04-15T06:37:24.974Z,7.2
2023-04-15T06:38:41.209Z,7.2
2023-04-15T06:39:57.441Z,7.2
2023-04-15T06:41:12.711Z,7.1
2023-04-15T06:42:28.933Z,7.2
2023-04-15T06:43:45.178Z,7.2
2023-04-15T06:45:01.423Z,7.2
2023-04-15T06:46:17.652Z,7.2
2023-04-15T06:47:33.000Z,7.2
2023-04-15T06:48:50.151Z,7.2
2023-04-15T06:50:06.372Z,7.2
2023-04-15T06:51:22.626Z,7.2
2023-04-15T06:52:38.853Z,7.2
2023-04-15T06:53:55.098Z,7.2
2023-04-15T06:55:11.335Z,7.3
2023-04-15T06:56:27.592Z,7.2
2023-04-15T06:57:42.846Z,7.2
2023-04-15T06:58:59.087Z,7.2
2023-04-15T07:00:15.307Z,7.3
2023-04-15T07:01:31.552Z,7.3
2023-04-15T07:02:47.794Z,7.3
2023-04-15T07:04:04.000Z,7.3
2023-04-15T07:05:20.267Z,7.3
2023-04-15T07:06:36.533Z,7.3
2023-04-15T07:07:52.747Z,7.3
2023-04-15T07:09:08.996Z,7.3
2023-04-15T07:10:25.239Z,7.3
2023-04-15T07:11:41.473Z,7.3
2023-04-15T07:12:57.713Z,7.3
2023-04-15T07:14:12.975Z,7.3
2023-04-15T07:15:29.215Z,7.3
2023-04-15T07:16:45.456Z,7.3
2023-04-15T07:18:01.691Z,7.3
2023-04-15T07:19:17.937Z,7.3
2023-04-15T07:20:34.169Z,7.3
2023-04-15T07:21:50.422Z,7.4
2023-04-15T07:23:06.656Z,7.4
2023-04-15T07:24:22.903Z,7.4
2023-04-15T07:25:39.124Z,7.4
2023-04-15T07:26:55.380Z,7.4
2023-04-15T07:28:11.621Z,7.4
2023-04-15T07:29:27.849Z,7.4
2023-04-15T07:30:43.102Z,7.5
2023-04-15T07:31:59.354Z,7.5
2023-04-15T07:33:15.580Z,7.5
2023-04-15T07:34:31.837Z,7.5
2023-04-15T07:35:48.077Z,7.5
2023-04-15T07:37:04.000Z,7.5
2023-04-15T07:38:20.543Z,7.5
2023-04-15T07:39:36.781Z,7.5
2023-04-15T07:40:53.030Z,7.5
2023-04-15T07:42:09.274Z,7.6
2023-04-15T07:43:25.525Z,7.6
2023-04-15T07:44:41.751Z,7.6
2023-04-15T07:45:58.000Z,7.6
2023-04-15T07:47:13.256Z,7.6
2023-04-15T07:48:29.483Z,7.6
2023-04-15T07:49:45.733Z,7.6
2023-04-15T07:51:01.976Z,7.6
2023-04-15T07:52:18.000Z,7.7
2023-04-15T07:53:34.452Z,7.7
2023-04-15T07:54:50.682Z,7.7
2023-04-15T07:56:06.923Z,7.7
2023-04-15T07:57:23.157Z,7.7
2023-04-15T07:58:39.409Z,7.7
2023-04-15T07:59:55.646Z,7.8
2023-04-15T08:01:11.893Z,7.8
2023-04-15T08:02:28.119Z,7.8
2023-04-15T08:03:43.376Z,7.8
2023-04-15T08:04:59.611Z,7.8
2023-04-15T08:06:15.857Z,7.8
2023-04-15T08:07:32.098Z,7.8
2023-04-15T08:08:48.353Z,7.9
2023-04-15T08:10:04.580Z,7.9
2023-04-15T08:11:20.818Z,7.9
2023-04-15T08:12:37.050Z,7.9
2023-04-15T08:13:53.295Z,7.9
2023-04-15T08:15:09.531Z,7.9
2023-04-15T08:16:25.777Z,7.9
2023-04-15T08:17:42.021Z,7.9
2023-04-15T08:18:58.258Z,7.9
2023-04-15T08:20:13.520Z,8
2023-04-15T08:21:29.741Z,8
2023-04-15T08:22:45.999Z,8
2023-04-15T08:24:02.239Z,8
2023-04-15T08:25:18.465Z,8
2023-04-15T08:26:34.708Z,8
2023-04-15T08:27:50.960Z,8
2023-04-15T08:29:07.188Z,8.1
2023-04-15T08:30:23.422Z,8.1
2023-04-15T08:31:39.666Z,8.1
2023-04-15T08:32:55.919Z,8.1
2023-04-15T08:34:12.147Z,8.1
2023-04-15T08:35:28.381Z,8.1
2023-04-15T08:36:43.000Z,8.1
2023-04-15T08:37:59.889Z,8.2
2023-04-15T08:39:16.128Z,8.2
2023-04-15T08:40:32.372Z,8.2
2023-04-15T08:41:48.607Z,8.2
2023-04-15T08:43:04.000Z,8.2
2023-04-15T08:44:21.098Z,8.2
2023-04-15T08:45:37.323Z,8.3
2023-04-15T08:46:53.570Z,8.3
2023-04-15T08:48:09.798Z,8.3
2023-04-15T08:49:26.038Z,8.3
2023-04-15T08:50:42.287Z,8.3
2023-04-15T08:51:58.511Z,8.3
2023-04-15T08:53:13.777Z,8.3
2023-04-15T08:54:30.012Z,8.3
2023-04-15T08:55:46.259Z,8.4
2023-04-15T08:57:02.487Z,8.4
2023-04-15T08:58:18.726Z,8.4
2023-04-15T08:59:34.970Z,8.4
2023-04-15T09:00:51.212Z,8.4
2023-04-15T09:02:07.467Z,8.5
2023-04-15T09:03:23.685Z,8.5
2023-04-15T09:04:39.923Z,8.5
2023-04-15T09:05:56.164Z,8.5
2023-04-15T09:07:12.414Z,8.5
2023-04-15T09:08:28.654Z,8.5
2023-04-15T09:09:43.898Z,8.6
2023-04-15T09:11:00.151Z,8.6
2023-04-15T09:12:16.399Z,8.6
2023-04-15T09:13:32.631Z,8.6
2023-04-15T09:14:48.858Z,8.6
2023-04-15T09:16:05.000Z,8.6
2023-04-15T09:17:21.339Z,8.6
2023-04-15T09:18:37.596Z,8.7
2023-04-15T09:19:53.836Z,8.6
2023-04-15T09:21:10.066Z,8.7
2023-04-15T09:22:26.301Z,8.7
2023-04-15T09:23:42.537Z,8.7
2023-04-15T09:24:58.777Z,8.7
2023-04-15T09:26:14.033Z,8.7
2023-04-15T09:27:30.274Z,8.8
2023-04-15T09:28:46.000Z,8.8
2023-04-15T09:30:02.763Z,8.8
2023-04-15T09:31:19.006Z,8.8
2023-04-15T09:32:35.243Z,8.8
2023-04-15T09:33:50.493Z,8.9
2023-04-15T09:35:06.751Z,8.9
2023-04-15T09:36:22.973Z,8.9
2023-04-15T09:37:39.226Z,8.9
2023-04-15T09:38:55.457Z,8.9
2023-04-15T09:40:11.694Z,8.9
2023-04-15T09:41:27.940Z,8.9
2023-04-15T09:42:44.000Z,8.9
2023-04-15T09:44:00.424Z,9
2023-04-15T09:45:16.656Z,9
2023-04-15T09:46:32.904Z,9
2023-04-15T09:47:49.134Z,9
2023-04-15T09:49:05.377Z,9
2023-04-15T09:50:20.635Z,9.1
2023-04-15T09:51:36.884Z,9.1
2023-04-15T09:52:53.134Z,9.1
2023-04-15T09:54:09.363Z,9.1
2023-04-15T09:55:25.599Z,9.2
2023-04-15T09:56:41.848Z,9.2
2023-04-15T09:57:58.069Z,9.2
2023-04-15T09:59:14.309Z,9.2
2023-04-15T10:00:30.567Z,9.3
2023-04-15T10:01:46.800Z,9.3
2023-04-15T10:03:03.036Z,9.3
2023-04-15T10:04:19.284Z,9.3
2023-04-15T10:05:35.000Z,9.3
2023-04-15T10:06:50.775Z,9.4
2023-04-15T10:08:07.025Z,9.4
2023-04-15T10:09:23.252Z,9.4
2023-04-15T10:10:39.493Z,9.4
2023-04-15T10:11:55.732Z,9.5
2023-04-15T10:13:11.983Z,9.5
2023-04-15T10:14:28.207Z,9.5
2023-04-15T10:15:44.459Z,9.5
2023-04-15T10:17:00.695Z,9.6
2023-04-15T10:18:16.931Z,9.6
2023-04-15T10:19:33.164Z,9.6
2023-04-15T10:20:49.415Z,9.6
2023-04-15T10:22:05.650Z,9.6
2023-04-15T10:23:20.898Z,9.6
2023-04-15T10:24:37.144Z,9.7
2023-04-15T10:25:53.384Z,9.7
2023-04-15T10:27:09.627Z,9.7
2023-04-15T10:28:25.864Z,9.7
2023-04-15T10:29:42.105Z,9.8
2023-04-15T10:30:58.339Z,9.8
2023-04-15T10:32:14.591Z,9.8
2023-04-15T10:33:30.834Z,9.8
2023-04-15T10:34:47.084Z,9.8
2023-04-15T10:36:03.312Z,9.9
2023-04-15T10:37:19.553Z,9.8
2023-04-15T10:38:35.787Z,9.9
2023-04-15T10:39:51.046Z,9.9
2023-04-15T10:41:07.286Z,9.9
2023-04-15T10:42:23.511Z,9.9
2023-04-15T10:43:39.767Z,9.9
2023-04-15T10:44:55.998Z,9.9
2023-04-15T10:46:12.234Z,10
2023-04-15T10:47:28.491Z,9.9
2023-04-15T10:48:44.731Z,9.9
2023-04-15T10:50:00.951Z,10
2023-04-15T10:51:17.203Z,9.9
2023-04-15T10:52:33.437Z,10
2023-04-15T10:53:49.684Z,10
2023-04-15T10:55:05.928Z,10
2023-04-15T10:56:21.184Z,10
2023-04-15T10:57:37.000Z,10
2023-04-15T10:58:53.667Z,9.9
2023-04-15T11:00:09.890Z,10
2023-04-15T11:01:26.143Z,10
2023-04-15T11:02:42.382Z,10
2023-04-15T11:03:58.616Z,10
2023-04-15T11:05:14.854Z,10
2023-04-15T11:06:31.095Z,10
2023-04-15T11:07:47.343Z,10
2023-04-15T11:09:03.582Z,10
2023-04-15T11:10:19.814Z,10
2023-04-15T11:11:36.064Z,10.1
2023-04-15T11:12:51.319Z,10
2023-04-15T11:14:07.561Z,10.1
2023-04-15T11:15:23.789Z,10.1
2023-04-15T11:16:40.035Z,10.1
2023-04-15T11:17:56.283Z,10.1
2023-04-15T11:19:12.522Z,10.1
2023-04-15T11:20:28.757Z,10.1
2023-04-15T11:21:44.999Z,10.1
2023-04-15T11:23:01.237Z,10.1
2023-04-15T11:24:17.477Z,10.1
2023-04-15T11:25:33.727Z,10.1
2023-04-15T11:26:49.949Z,10.1
2023-04-15T11:28:06.196Z,10.1
2023-04-15T11:29:21.441Z,10.1
2023-04-15T11:30:37.683Z,10.1
2023-04-15T11:31:53.000Z,10.1
2023-04-15T11:33:10.169Z,10.1
2023-04-15T11:34:26.419Z,10.1
2023-04-15T11:35:42.656Z,10.1
2023-04-15T11:36:58.884Z,10.1
2023-04-15T11:38:15.129Z,10.2
2023-04-15T11:39:31.375Z,10.2
2023-04-15T11:40:47.620Z,10.2
2023-04-15T11:42:03.859Z,10.2
2023-04-15T11:43:20.095Z,10.2
2023-04-15T11:44:36.338Z,10.2
2023-04-15T11:45:51.598Z,10.2
2023-04-15T11:47:07.832Z,10.2
2023-04-15T11:48:24.058Z,10.3
2023-04-15T11:49:40.309Z,10.3
2023-04-15T11:50:56.549Z,10.3
2023-04-15T11:52:12.792Z,10.2
2023-04-15T11:53:29.037Z,10.3
2023-04-15T11:54:45.264Z,10.2
2023-04-15T11:56:01.499Z,10.2
2023-04-15T11:57:17.768Z,10.2
2023-04-15T11:58:33.997Z,10.2
2023-04-15T11:59:50.221Z,10.2
2023-04-15T12:01:06.464Z,10.2
2023-04-15T12:02:21.714Z,10.3
2023-04-15T12:03:37.955Z,10.3
2023-04-15T12:04:54.000Z,10.3
2023-04-15T12:06:10.457Z,10.2
2023-04-15T12:07:26.678Z,10.2
2023-04-15T12:08:42.921Z,10.2
2023-04-15T12:09:59.179Z,10.2
2023-04-15T12:11:15.402Z,10.2
2023-04-15T12:12:31.660Z,10.3
2023-04-15T12:13:47.904Z,10.3
2023-04-15T12:15:04.139Z,10.3
2023-04-15T12:16:20.364Z,10.3
2023-04-15T12:17:36.000Z,10.3
2023-04-15T12:18:51.868Z,10.3
2023-04-15T12:20:08.096Z,10.3
2023-04-15T12:21:24.351Z,10.3
2023-04-15T12:22:40.573Z,10.3
2023-04-15T12:23:56.820Z,10.3
2023-04-15T12:25:13.073Z,10.4
2023-04-15T12:26:29.297Z,10.4
2023-04-15T12:27:45.533Z,10.5
2023-04-15T12:29:01.789Z,10.5
2023-04-15T12:30:18.031Z,10.5
2023-04-15T12:31:34.261Z,10.5
2023-04-15T12:32:50.517Z,10.6
2023-04-15T12:34:06.740Z,10.5
2023-04-15T12:35:22.015Z,10.5
2023-04-15T12:36:38.234Z,10.5
2023-04-15T12:37:54.488Z,10.5
2023-04-15T12:39:10.729Z,10.5
2023-04-15T12:40:26.973Z,10.6
2023-04-15T12:41:43.206Z,10.6
2023-04-15T12:42:59.434Z,10.7
2023-04-15T12:44:15.688Z,10.7
2023-04-15T12:45:31.930Z,10.7
2023-04-15T12:46:48.156Z,10.7
2023-04-15T12:48:04.407Z,10.7
2023-04-15T12:49:20.661Z,10.7
2023-04-15T12:50:36.884Z,10.8
2023-04-15T12:51:52.143Z,10.8
2023-04-15T12:53:08.000Z,10.8
2023-04-15T12:54:24.612Z,10.8
2023-04-15T12:55:40.868Z,10.9
2023-04-15T12:56:57.103Z,10.9
2023-04-15T12:58:13.334Z,10.9
2023-04-15T12:59:29.574Z,10.9
2023-04-15T13:00:45.829Z,10.8
2023-04-15T13:02:02.053Z,10.9
2023-04-15T13:03:18.301Z,10.9
2023-04-15T13:04:34.531Z,10.8
2023-04-15T13:05:50.786Z,10.9
2023-04-15T13:07:07.011Z,10.8
2023-04-15T13:08:22.286Z,10.9
2023-04-15T13:09:38.519Z,10.9
2023-04-15T13:10:54.000Z,10.9
2023-04-15T13:12:10.988Z,10.9
2023-04-15T13:13:27.226Z,10.9
2023-04-15T13:14:43.475Z,10.9
2023-04-15T13:15:59.728Z,11
2023-04-15T13:17:15.963Z,11
2023-04-15T13:18:32.203Z,11
2023-04-15T13:19:48.442Z,11
2023-04-15T13:21:04.668Z,11
2023-04-15T13:22:20.917Z,11
2023-04-15T13:23:37.151Z,11
2023-04-15T13:24:52.404Z,11
2023-04-15T13:26:08.659Z,11
2023-04-15T13:27:24.900Z,11
2023-04-15T13:28:41.137Z,11
2023-04-15T13:29:57.383Z,11.1
2023-04-15T13:31:13.604Z,11
2023-04-15T13:32:29.854Z,11
2023-04-15T13:33:46.089Z,11
2023-04-15T13:35:02.338Z,11
2023-04-15T13:36:18.576Z,11
2023-04-15T13:37:34.000Z,11
2023-04-15T13:38:51.059Z,11
2023-04-15T13:40:07.304Z,11
2023-04-15T13:41:22.559Z,11
2023-04-15T13:42:38.800Z,11
2023-04-15T13:43:55.031Z,11
2023-04-15T13:45:11.273Z,11
2023-04-15T13:46:27.506Z,11
2023-04-15T13:47:43.742Z,11
2023-04-15T13:48:59.037Z,11.1
2023-04-15T13:50:15.254Z,11.1
2023-04-15T13:51:31.490Z,11.1
2023-04-15T13:52:47.740Z,11.1
2023-04-15T13:54:03.962Z,11.1
2023-04-15T13:55:20.205Z,11.2
2023-04-15T13:56:36.468Z,11.2
2023-04-15T13:57:52.698Z,11.2
2023-04-15T13:59:08.933Z,11.2
2023-04-15T14:00:25.170Z,11.2
2023-04-15T14:01:41.411Z,11.3
2023-04-15T14:02:57.664Z,11.3
2023-04-15T14:04:13.894Z,11.2
2023-04-15T14:05:29.148Z,11.3
2023-04-15T14:06:45.385Z,11.2
2023-04-15T14:08:01.641Z,11.2
2023-04-15T14:09:17.869Z,11.2
2023-04-15T14:10:34.108Z,11.2
2023-04-15T14:11:50.357Z,11.2
2023-04-15T14:13:06.594Z,11.2
2023-04-15T14:14:22.822Z,11.1
2023-04-15T14:15:39.062Z,11.1
2023-04-15T14:16:55.322Z,11
2023-04-15T14:18:11.559Z,11.1
2023-04-15T14:19:27.787Z,11.1
2023-04-15T14:20:44.029Z,11.1
2023-04-15T14:21:59.296Z,11.1
2023-04-15T14:23:15.533Z,11.1
2023-04-15T14:24:31.000Z,11.1
2023-04-15T14:25:48.007Z,11.1
2023-04-15T14:27:04.252Z,11.2
2023-04-15T14:28:20.493Z,11.2
2023-04-15T14:29:36.731Z,11.2
2023-04-15T14:30:52.967Z,11.2
2023-04-15T14:32:09.207Z,11.2
2023-04-15T14:33:25.442Z,11.2
2023-04-15T14:34:41.680Z,11.3
2023-04-15T14:35:57.929Z,11.3
2023-04-15T14:37:14.176Z,11.3
2023-04-15T14:38:29.423Z,11.4
2023-04-15T14:39:45.680Z,11.4
2023-04-15T14:41:01.907Z,11.4
2023-04-15T14:42:18.149Z,11.4
2023-04-15T14:43:34.391Z,11.4
2023-04-15T14:44:50.000Z,11.5
2023-04-15T14:46:06.876Z,11.4
2023-04-15T14:47:23.116Z,11.4
2023-04-15T14:48:39.349Z,11.4
2023-04-15T14:49:55.593Z,11.5
2023-04-15T14:51:11.841Z,11.5
2023-04-15T14:52:28.000Z,11.6
2023-04-15T14:53:44.298Z,11.6
2023-04-15T14:54:59.572Z,11.6
2023-04-15T14:56:15.811Z,11.7
2023-04-15T14:57:32.040Z,11.7
2023-04-15T14:58:48.287Z,11.8
2023-04-15T15:00:04.519Z,11.8
2023-04-15T15:01:20.766Z,11.8
2023-04-15T15:02:36.996Z,11.8
2023-04-15T15:03:53.236Z,11.8
2023-04-15T15:05:09.494Z,11.7
2023-04-15T15:06:25.717Z,11.7
2023-04-15T15:07:41.967Z,11.7
2023-04-15T15:08:58.206Z,11.7
2023-04-15T15:10:14.450Z,11.6
2023-04-15T15:11:29.692Z,11.6
2023-04-15T15:12:45.932Z,11.6
2023-04-15T15:14:02.190Z,11.6
2023-04-15T15:15:18.431Z,11.5
2023-04-15T15:16:34.687Z,11.6
2023-04-15T15:17:50.905Z,11.5
2023-04-15T15:19:07.000Z,11.5
2023-04-15T15:20:23.392Z,11.4
2023-04-15T15:21:39.639Z,11.4
2023-04-15T15:22:55.862Z,11.4
2023-04-15T15:24:12.104Z,11.3
2023-04-15T15:25:28.346Z,11.3
2023-04-15T15:26:44.580Z,11.3
2023-04-15T15:27:59.829Z,11.3
2023-04-15T15:29:16.073Z,11.3
2023-04-15T15:30:32.321Z,11.2
2023-04-15T15:31:48.572Z,11.2
2023-04-15T15:33:04.802Z,11.2
2023-04-15T15:34:21.037Z,11.2
2023-04-15T15:35:37.278Z,11.2
2023-04-15T15:36:53.529Z,11.3
2023-04-15T15:38:09.759Z,11.3
2023-04-15T15:39:26.004Z,11.3
2023-04-15T15:40:42.232Z,11.3
2023-04-15T15:41:58.483Z,11.3
2023-04-15T15:43:14.717Z,11.3
2023-04-15T15:44:29.981Z,11.3
2023-04-15T15:45:46.208Z,11.3
2023-04-15T15:47:02.454Z,11.3
2023-04-15T15:48:18.691Z,11.2
2023-04-15T15:49:34.934Z,11.2
2023-04-15T15:50:51.177Z,11.2
2023-04-15T15:52:07.413Z,11.2
2023-04-15T15:53:23.668Z,11.2
2023-04-15T15:54:39.918Z,11.2
2023-04-15T15:55:56.143Z,11.2
2023-04-15T15:57:12.386Z,11.2
2023-04-15T15:58:28.627Z,11.2
2023-04-15T15:59:44.849Z,11.1
2023-04-15T16:01:00.122Z,11.1
2023-04-15T16:02:16.353Z,11.2
2023-04-15T16:03:32.603Z,11.2
2023-04-15T16:04:48.826Z,11.2
2023-04-15T16:06:05.074Z,11.2
2023-04-15T16:07:21.324Z,11.2
2023-04-15T16:08:37.548Z,11.2
2023-04-15T16:09:53.796Z,11.2
2023-04-15T16:11:10.044Z,11.3
2023-04-15T16:12:26.278Z,11.3
2023-04-15T16:13:42.523Z,11.3
2023-04-15T16:14:58.760Z,11.3
2023-04-15T16:16:15.000Z,11.3
2023-04-15T16:17:30.251Z,11.4
2023-04-15T16:18:46.484Z,11.4
2023-04-15T16:20:02.729Z,11.4
2023-04-15T16:21:18.966Z,11.4
2023-04-15T16:22:35.203Z,11.4
2023-04-15T16:23:51.459Z,11.4
2023-04-15T16:25:07.682Z,11.4
2023-04-15T16:26:23.928Z,11.4
2023-04-15T16:27:40.173Z,11.4
2023-04-15T16:28:56.417Z,11.3
2023-04-15T16:30:12.667Z,11.4
2023-04-15T16:31:28.888Z,11.4
2023-04-15T16:32:45.129Z,11.3
2023-04-15T16:34:00.393Z,11.4
2023-04-15T16:35:16.621Z,11.4
2023-04-15T16:36:32.878Z,11.4
2023-04-15T16:37:49.121Z,11.4
2023-04-15T16:39:05.351Z,11.4
2023-04-15T16:40:21.590Z,11.4
2023-04-15T16:41:37.831Z,11.4
2023-04-15T16:42:54.061Z,11.4
2023-04-15T16:44:10.000Z,11.4
2023-04-15T16:45:26.000Z,11.4
2023-04-15T16:46:42.779Z,11.4
2023-04-15T16:47:59.050Z,11.4
2023-04-15T16:49:15.271Z,11.4
2023-04-15T16:50:30.531Z,11.4
2023-04-15T16:51:46.767Z,11.3
2023-04-15T16:53:03.002Z,11.3
2023-04-15T16:54:19.243Z,11.3
2023-04-15T16:55:35.510Z,11.3
2023-04-15T16:56:51.731Z,11.3
2023-04-15T16:58:07.962Z,11.3
2023-04-15T16:59:24.196Z,11.3
2023-04-15T17:00:40.461Z,11.3
2023-04-15T17:01:56.687Z,11.3
2023-04-15T17:03:12.935Z,11.3
2023-04-15T17:04:29.158Z,11.3
2023-04-15T17:05:45.411Z,11.3
2023-04-15T17:07:00.652Z,11.2
2023-04-15T17:08:16.904Z,11.2
2023-04-15T17:09:33.143Z,11.2
2023-04-15T17:10:49.377Z,11.2
2023-04-15T17:12:05.614Z,11.2
2023-04-15T17:13:21.858Z,11.2
2023-04-15T17:14:38.097Z,11.2
2023-04-15T17:15:54.340Z,11.1
2023-04-15T17:17:10.593Z,11.1
2023-04-15T17:18:26.821Z,11.1
2023-04-15T17:19:43.053Z,11.1
2023-04-15T17:20:59.296Z,11
2023-04-15T17:22:15.553Z,11.1